SEATTLE-TACOMA INTL

KSEA (SEA)
Seattle, Washington
Towered

Vatsim Metar:
KSEA 190953Z 22004KT 10SM BKN028 OVC037 17/12 A2993 RMK AO2 SLP141 T01670122

No ATC Online

Traffic

Inbound:
Ident
Type
Name
ETA
Phase
AAL181
A320/L
1159469
10:44 Z
Cruse
JBU6719
A320/L
Gadi Lutenberg LLBS
Unknown
NRS7131
H/B789/L
Axel Westermark ESTA
17:12 Z
Cruse

Outbound:
Ident
Type
Name
Destination
Phase
GTI8577
H/B744/L
Chris Gutierrez KMIA
EGNX
Climb